Relevés horaires Matro (Suisse)


Relevés horaires à Matro - Lundi 11 Janv. 2021
Heure UTC1 Température [°C] Vent [km/h] Hum. [%] Pres.4 [hPa] Visi. [Km] Nébu. [octa] Préc.5 [mm] Cond.
2m. Res. Ros. Dir.2 Vit. Moy. Raf.3
23:00 -4.3 -12 -27.9 NO 29.6 -- 46.3 14 850(0.1/3h) -- -- -- --
22:00 -4.3 -12.7 -29.3 NO 35.2 -- 44.4 12 850(0.5/3h) -- -- -- --
21:00 -4.2 -12.5 -29.4 NNO 35.2 -- 63.0 12 850(0.9/3h) -- -- -- --
20:00 -4.2 -13.1 -29.8 NNO 40.7 -- 57.4 11 850(1.1/3h) -- -- -- --
19:00 -4.6 -13.8 -29.1 NNO 42.6 -- 63.0 13 850(0.9/3h) -- -- -- --
18:00 -4.6 -13.6 -28.6 NNO 40.7 -- 64.8 13 850(0.6/3h) -- -- -- --
17:00 -4.7 -13.7 -28.3 NNO 40.7 -- 57.4 14 850(0.4/3h) -- -- -- --
16:00 -4.4 -13 -29.0 NNO 37.0 -- 63.0 13 850(0.0/3h) -- -- -- --
15:00 -3.5 -11.8 -30.7 NNO 37.0 -- 64.8 10 850(-0.5/3h) -- -- -- --
14:00 -3.5 -12 -27.6 NNO 38.9 -- 64.8 13 850(-0.7/3h) -- -- -- --
13:00 -3.8 -10.9 -28.8 NNO 25.9 -- 50.0 12 850(-0.4/3h) -- -- -- --
12:00 -3.9 -11.7 -30.7 NNO 31.5 -- 72.2 10 850(0.6/3h) -- -- -- --
11:00 -4.2 -11.7 -31.1 NO 27.8 -- 59.3 10 850(1.5/3h) -- -- -- --
10:00 -4.5 -13.8 -33.3 NNO 44.4 -- 63.0 8 850(1.8/3h) -- -- -- --
09:00 -4.9 -13.8 -32.4 NNO 38.9 -- 72.2 9 850(1.4/3h) -- -- -- --
08:00 -5.1 -15.4 -33.9 NNO 53.7 -- 72.2 8 850(0.6/3h) -- -- -- --
07:00 -4.8 -14.4 -34.6 NNO 46.3 -- 66.7 7 850(0.2/3h) -- -- -- --
06:00 -4.8 -14.2 -35.8 NNO 44.4 -- 59.3 7 850(-0.3/3h) -- -- -- --
05:00 -5.3 -14.5 -34.6 NNO 40.7 -- 51.9 8 850(-0.4/3h) -- -- -- --
04:00 -6.2 -14.7 -31.7 NO 31.5 -- 46.3 11 850(-0.3/3h) -- -- -- --
03:00 -6.0 -14.5 -32.9 NNO 31.5 -- 46.3 10 850(0.0/3h) -- -- -- --
02:00 -6.0 -14.5 -32.4 NNO 31.5 -- 44.4 10 850(-0.1/3h) -- -- -- --
01:00 -6.3 -14.9 -31.5 NNO 31.5 -- 42.6 11 850(-0.1/3h) -- -- -- --
00:00 -6.2 -14.7 -32.1 NNO 31.5 -- 38.9 11 850(-0.1/3h) -- -- -- --

1 Coordinated Universal Time. Actuellement il est 04:00 locale et 02:00 UTC.

2 Le vent souffle depuis la direction indiquée vers la direction oposée.

3 Les rafales max. sont disponible 40 min après l'heure du relevé.

4 Pour les stations d'altitude (plus de 600m) le géopotentiel du niveau le plus proche de la pression obligatoire est indiqué.

5 Les stations disposant d'un diffuseur peuvent indiquer "trace". Cela signifie que des précipitations ont touchés le sol mais que la quantité est inférieure à 0.1 mm.

Copyright

Les données affichées sur cette page sont la propriété exclusive de Météo Suisse.

Récapitulatif de la journée
Température [°C] Vent [km/h] Ensoleillement4 [h] Precipitations totale5 [mm] Pression [Hpa]
Min1 Max.2 Moy.3 Max. Min Max.
-7.1 -3.4 0 72.2 7 h 48 min 0 850.0 850.0

1 Température minimale relevée entre 18:00 UTC la veille et 18:00 UTC le jour donné.

2 Température maximale relevée entre 06:00 UTC le jour donné et 06:00 UTC le lendemain.

3 Vent moyen de la journée basé sur les relevés horaires.

4 Ensoleillement en heures relevé entre 06:00 UTC la veille et 06:00 UTC le jour donné.

5 Précipitations totales tombées entre 06:00 UTC la jour donné et 06:00 UTC le lendemain.

Graphiques horaires